Time,TemperatureF,DewpointF,PressureIn,WindDirection,WindDirectionDegrees,WindSpeedMPH,WindSpeedGustMPH,Humidity,HourlyPrecipIn,Conditions,Clouds,dailyrainin,SoftwareType,DateUTC
2013-02-07 00:11:00,31.3,26.5,30.15,NNE,22,0.9,-999.0,82,0.00,,,0.00,open2300 v1.10,2013-02-07 05:11:00,
2013-02-07 00:21:00,31.3,26.5,30.15,NNE,22,3.8,-999.0,82,0.00,,,0.00,open2300 v1.10,2013-02-07 05:21:00,
2013-02-07 00:31:00,31.1,26.6,30.13,NNE,22,3.6,-999.0,83,0.00,,,0.00,open2300 v1.10,2013-02-07 05:31:00,
2013-02-07 00:41:00,31.3,26.7,30.14,East,90,0.0,-999.0,83,0.00,,,0.00,open2300 v1.10,2013-02-07 05:41:00,
2013-02-07 00:51:00,31.3,26.7,30.14,NNE,22,4.7,-999.0,83,0.00,,,0.00,open2300 v1.10,2013-02-07 05:51:00,
2013-02-07 01:01:00,31.3,26.7,30.14,NNE,22,5.4,-999.0,83,0.00,,,0.00,open2300 v1.10,2013-02-07 06:01:00,
2013-02-07 01:11:00,31.3,26.7,30.14,NNE,22,5.4,-999.0,83,0.00,,,0.00,open2300 v1.10,2013-02-07 06:11:00,
2013-02-07 01:21:00,31.3,26.7,30.13,NNE,22,1.8,-999.0,83,0.00,,,0.00,open2300 v1.10,2013-02-07 06:21:00,
2013-02-07 01:31:00,31.3,26.7,30.13,NNE,22,0.2,-999.0,83,0.00,,,0.00,open2300 v1.10,2013-02-07 06:31:00,
2013-02-07 01:41:00,31.3,26.7,30.13,NNE,22,0.0,-999.0,83,0.00,,,0.00,open2300 v1.10,2013-02-07 06:41:00,
2013-02-07 01:51:00,31.1,26.6,30.13,NNE,22,0.0,-999.0,83,0.00,,,0.00,open2300 v1.10,2013-02-07 06:51:00,
2013-02-07 02:01:00,31.1,26.6,30.12,NNE,22,4.9,-999.0,83,0.00,,,0.00,open2300 v1.10,2013-02-07 07:01:00,
2013-02-07 02:11:00,31.1,26.9,30.11,NNE,22,3.6,-999.0,84,0.00,,,0.00,open2300 v1.10,2013-02-07 07:11:00,
2013-02-07 02:21:00,31.1,26.9,30.11,NNE,22,3.6,-999.0,84,0.00,,,0.00,open2300 v1.10,2013-02-07 07:21:00,
2013-02-07 02:31:00,31.1,26.9,30.10,NNE,22,4.9,-999.0,84,0.00,,,0.00,open2300 v1.10,2013-02-07 07:31:00,
2013-02-07 02:41:00,31.1,26.9,30.10,NNE,22,2.5,-999.0,84,0.00,,,0.00,open2300 v1.10,2013-02-07 07:41:00,
2013-02-07 02:51:00,31.1,26.9,30.11,NNE,22,0.0,-999.0,84,0.00,,,0.00,open2300 v1.10,2013-02-07 07:51:00,
2013-02-07 03:01:00,31.1,26.9,30.12,NNE,22,0.0,-999.0,84,0.00,,,0.00,open2300 v1.10,2013-02-07 08:01:00,
2013-02-07 03:11:00,30.9,26.7,30.11,NNE,22,0.0,-999.0,84,0.00,,,0.00,open2300 v1.10,2013-02-07 08:11:00,
2013-02-07 03:21:00,30.9,26.7,30.11,NNE,22,0.0,-999.0,84,0.00,,,0.00,open2300 v1.10,2013-02-07 08:21:00,
2013-02-07 03:31:00,30.7,26.5,30.10,NNE,22,0.0,-999.0,84,0.00,,,0.00,open2300 v1.10,2013-02-07 08:31:00,
2013-02-07 03:41:00,30.7,26.2,30.10,NNE,22,0.0,-999.0,83,0.00,,,0.00,open2300 v1.10,2013-02-07 08:41:00,
2013-02-07 03:51:00,30.6,26.0,30.10,NNE,22,0.0,-999.0,83,0.00,,,0.00,open2300 v1.10,2013-02-07 08:51:00,
2013-02-07 04:01:00,30.2,25.7,30.10,NNE,22,0.0,-999.0,83,0.00,,,0.00,open2300 v1.10,2013-02-07 09:01:00,
2013-02-07 04:11:00,30.0,25.8,30.08,NNE,22,0.0,-999.0,84,0.00,,,0.00,open2300 v1.10,2013-02-07 09:11:00,
2013-02-07 04:21:00,30.0,25.8,30.08,NNE,22,0.0,-999.0,84,0.00,,,0.00,open2300 v1.10,2013-02-07 09:21:00,
2013-02-07 04:31:00,30.0,25.8,30.08,NNE,22,2.5,-999.0,84,0.00,,,0.00,open2300 v1.10,2013-02-07 09:31:00,
2013-02-07 04:41:00,30.4,26.1,30.09,NNE,22,0.0,-999.0,84,0.00,,,0.00,open2300 v1.10,2013-02-07 09:41:00,
2013-02-07 04:51:00,30.4,26.1,30.09,NNE,22,0.0,-999.0,84,0.00,,,0.00,open2300 v1.10,2013-02-07 09:51:00,
2013-02-07 05:01:00,30.6,26.6,30.08,NNE,22,7.6,-999.0,85,0.00,,,0.00,open2300 v1.10,2013-02-07 10:01:00,
2013-02-07 05:11:00,30.7,26.8,30.08,NNE,22,0.0,-999.0,85,0.00,,,0.00,open2300 v1.10,2013-02-07 10:11:00,
2013-02-07 05:21:00,30.7,26.8,30.07,NNE,22,0.0,-999.0,85,0.00,,,0.00,open2300 v1.10,2013-02-07 10:21:00,
2013-02-07 05:31:00,30.7,26.8,30.08,NNE,22,1.1,-999.0,85,0.00,,,0.00,open2300 v1.10,2013-02-07 10:31:00,
2013-02-07 05:41:00,30.9,27.0,30.09,NNE,22,0.7,-999.0,85,0.00,,,0.00,open2300 v1.10,2013-02-07 10:41:00,
2013-02-07 05:51:00,30.9,27.0,30.09,NNE,22,0.0,-999.0,85,0.00,,,0.00,open2300 v1.10,2013-02-07 10:51:00,
2013-02-07 06:01:00,31.1,27.1,30.08,NNE,22,0.0,-999.0,85,0.00,,,0.00,open2300 v1.10,2013-02-07 11:01:00,
2013-02-07 06:11:00,31.1,27.1,30.08,NNE,22,0.0,-999.0,85,0.00,,,0.00,open2300 v1.10,2013-02-07 11:11:00,
2013-02-07 06:21:00,30.9,27.0,30.07,NNE,22,0.0,-999.0,85,0.00,,,0.00,open2300 v1.10,2013-02-07 11:21:00,
2013-02-07 06:31:00,31.1,27.1,30.07,NNE,22,0.0,-999.0,85,0.00,,,0.00,open2300 v1.10,2013-02-07 11:31:00,
2013-02-07 06:41:00,31.1,27.1,30.07,NNE,22,0.0,-999.0,85,0.00,,,0.00,open2300 v1.10,2013-02-07 11:41:00,
2013-02-07 06:51:00,31.1,27.1,30.07,NNE,22,0.0,-999.0,85,0.00,,,0.00,open2300 v1.10,2013-02-07 11:51:00,
2013-02-07 07:01:00,31.3,27.3,30.07,NNE,22,0.0,-999.0,85,0.00,,,0.00,open2300 v1.10,2013-02-07 12:01:00,
2013-02-07 07:11:00,31.3,27.3,30.08,East,90,0.0,-999.0,85,0.00,,,0.00,open2300 v1.10,2013-02-07 12:11:00,
2013-02-07 07:21:00,31.3,27.3,30.08,East,90,0.0,-999.0,85,0.00,,,0.00,open2300 v1.10,2013-02-07 12:21:00,
2013-02-07 07:31:00,31.5,27.5,30.08,East,90,0.0,-999.0,85,0.00,,,0.00,open2300 v1.10,2013-02-07 12:31:00,
2013-02-07 07:41:00,31.6,27.7,30.08,East,90,0.0,-999.0,85,0.00,,,0.00,open2300 v1.10,2013-02-07 12:41:00,
2013-02-07 07:51:00,31.6,27.7,30.08,East,90,0.0,-999.0,85,0.00,,,0.00,open2300 v1.10,2013-02-07 12:51:00,
2013-02-07 08:01:00,31.6,27.7,30.07,NNE,22,0.0,-999.0,85,0.00,,,0.00,open2300 v1.10,2013-02-07 13:01:00,
2013-02-07 08:11:00,31.8,27.9,30.07,North,0,0.0,-999.0,85,0.00,,,0.00,open2300 v1.10,2013-02-07 13:11:00,
2013-02-07 08:21:00,31.6,27.7,30.07,North,0,0.0,-999.0,85,0.00,,,0.00,open2300 v1.10,2013-02-07 13:21:00,
2013-02-07 08:31:00,31.6,27.7,30.07,North,0,0.0,-999.0,85,0.00,,,0.00,open2300 v1.10,2013-02-07 13:31:00,
2013-02-07 08:41:00,31.6,27.7,30.07,North,0,0.0,-999.0,85,0.00,,,0.00,open2300 v1.10,2013-02-07 13:41:00,
2013-02-07 08:51:00,31.6,28.0,30.06,North,0,0.0,-999.0,86,0.00,,,0.00,open2300 v1.10,2013-02-07 13:51:00,
2013-02-07 09:01:00,31.8,28.1,30.06,North,0,0.0,-999.0,86,0.00,,,0.00,open2300 v1.10,2013-02-07 14:01:00,
2013-02-07 09:11:00,31.8,28.1,30.07,North,0,0.0,-999.0,86,0.00,,,0.00,open2300 v1.10,2013-02-07 14:11:00,
2013-02-07 09:21:00,32.2,28.5,30.07,North,0,0.0,-999.0,86,0.00,,,0.00,open2300 v1.10,2013-02-07 14:21:00,
2013-02-07 09:31:00,32.7,29.0,30.06,North,0,0.0,-999.0,86,0.00,,,0.00,open2300 v1.10,2013-02-07 14:31:00,
2013-02-07 09:41:00,33.3,29.5,30.06,North,0,0.0,-999.0,86,0.00,,,0.00,open2300 v1.10,2013-02-07 14:41:00,
2013-02-07 09:51:00,33.6,29.8,30.05,North,0,0.0,-999.0,86,0.00,,,0.00,open2300 v1.10,2013-02-07 14:51:00,
2013-02-07 10:01:00,34.3,30.5,30.05,North,0,0.0,-999.0,86,0.00,,,0.00,open2300 v1.10,2013-02-07 15:01:00,
2013-02-07 10:11:00,35.1,30.9,30.04,North,0,0.0,-999.0,85,0.00,,,0.00,open2300 v1.10,2013-02-07 15:11:00,
2013-02-07 10:21:00,36.1,32.0,30.04,North,0,0.0,-999.0,85,0.00,,,0.00,open2300 v1.10,2013-02-07 15:21:00,
2013-02-07 10:31:00,37.4,32.7,30.04,North,0,0.0,-999.0,83,0.00,,,0.00,open2300 v1.10,2013-02-07 15:31:00,
2013-02-07 10:41:00,38.1,33.1,30.03,North,0,0.0,-999.0,82,0.00,,,0.00,open2300 v1.10,2013-02-07 15:41:00,
2013-02-07 10:51:00,38.8,33.5,30.03,North,0,0.0,-999.0,81,0.00,,,0.00,open2300 v1.10,2013-02-07 15:51:00,
2013-02-07 11:01:00,39.2,33.3,30.02,NNE,22,0.0,-999.0,79,0.00,,,0.00,open2300 v1.10,2013-02-07 16:01:00,
2013-02-07 11:11:00,39.2,33.3,30.02,NNE,22,0.0,-999.0,79,0.00,,,0.00,open2300 v1.10,2013-02-07 16:11:00,
2013-02-07 11:21:00,39.7,33.4,30.02,North,0,0.0,-999.0,78,0.00,,,0.00,open2300 v1.10,2013-02-07 16:21:00,
2013-02-07 11:31:00,40.5,34.1,30.01,NNE,22,0.0,-999.0,78,0.00,,,0.00,open2300 v1.10,2013-02-07 16:31:00,
2013-02-07 11:41:00,41.2,34.5,30.01,NNE,22,0.0,-999.0,77,0.00,,,0.00,open2300 v1.10,2013-02-07 16:41:00,
2013-02-07 11:51:00,41.9,34.8,30.00,WNW,292,0.0,-999.0,76,0.00,,,0.00,open2300 v1.10,2013-02-07 16:51:00,
2013-02-07 12:01:00,42.6,35.2,30.00,NNE,22,0.0,-999.0,75,0.00,,,0.00,open2300 v1.10,2013-02-07 17:01:00,
2013-02-07 12:11:00,43.5,36.1,30.00,NNE,22,3.8,-999.0,75,0.00,,,0.00,open2300 v1.10,2013-02-07 17:11:00,
2013-02-07 12:21:00,44.4,37.0,30.00,NNE,22,0.0,-999.0,75,0.00,,,0.00,open2300 v1.10,2013-02-07 17:21:00,
2013-02-07 12:31:00,45.7,37.5,29.99,NNE,22,1.1,-999.0,73,0.00,,,0.00,open2300 v1.10,2013-02-07 17:31:00,
2013-02-07 12:41:00,46.2,36.6,29.98,East,90,3.6,-999.0,69,0.00,,,0.00,open2300 v1.10,2013-02-07 17:41:00,
2013-02-07 12:51:00,46.8,36.4,29.97,NNE,22,5.8,-999.0,67,0.00,,,0.00,open2300 v1.10,2013-02-07 17:51:00,
2013-02-07 13:01:00,47.3,36.9,29.97,NNE,22,9.2,-999.0,67,0.00,,,0.00,open2300 v1.10,2013-02-07 18:01:00,
2013-02-07 13:11:00,47.8,37.0,29.96,NNE,22,3.6,-999.0,66,0.00,,,0.00,open2300 v1.10,2013-02-07 18:11:00,
2013-02-07 13:21:00,48.0,36.8,29.96,NNE,22,2.5,-999.0,65,0.00,,,0.00,open2300 v1.10,2013-02-07 18:21:00,
2013-02-07 13:31:00,48.7,37.1,29.94,WNW,292,3.8,-999.0,64,0.00,,,0.00,open2300 v1.10,2013-02-07 18:31:00,
2013-02-07 13:41:00,48.7,37.1,29.94,East,90,5.6,-999.0,64,0.00,,,0.00,open2300 v1.10,2013-02-07 18:41:00,
2013-02-07 13:51:00,48.2,37.0,29.93,NNE,22,3.6,-999.0,65,0.00,,,0.00,open2300 v1.10,2013-02-07 18:51:00,
2013-02-07 14:01:00,48.4,37.5,29.93,NNE,22,5.8,-999.0,66,0.00,,,0.00,open2300 v1.10,2013-02-07 19:01:00,
2013-02-07 14:11:00,48.9,38.0,29.92,NNE,22,5.8,-999.0,66,0.00,,,0.00,open2300 v1.10,2013-02-07 19:11:00,
2013-02-07 14:21:00,48.7,37.5,29.91,NNE,22,0.0,-999.0,65,0.00,,,0.00,open2300 v1.10,2013-02-07 19:21:00,
2013-02-07 14:31:00,49.8,38.9,29.90,East,90,6.5,-999.0,66,0.00,,,0.00,open2300 v1.10,2013-02-07 19:31:00,
2013-02-07 14:41:00,51.6,39.4,29.89,NNE,22,0.0,-999.0,63,0.00,,,0.00,open2300 v1.10,2013-02-07 19:41:00,
2013-02-07 14:51:00,52.3,39.7,29.89,NNE,22,6.3,-999.0,62,0.00,,,0.00,open2300 v1.10,2013-02-07 19:51:00,
2013-02-07 15:01:00,52.9,39.4,29.88,NNE,22,6.0,-999.0,60,0.00,,,0.00,open2300 v1.10,2013-02-07 20:01:00,
2013-02-07 15:11:00,53.2,38.8,29.87,NNE,22,2.0,-999.0,58,0.00,,,0.00,open2300 v1.10,2013-02-07 20:11:00,
2013-02-07 15:21:00,52.5,38.5,29.87,North,0,5.6,-999.0,59,0.00,,,0.00,open2300 v1.10,2013-02-07 20:21:00,
2013-02-07 15:31:00,53.4,39.9,29.86,East,90,6.0,-999.0,60,0.00,,,0.00,open2300 v1.10,2013-02-07 20:31:00,
2013-02-07 15:41:00,53.4,39.0,29.86,NNE,22,8.5,-999.0,58,0.00,,,0.00,open2300 v1.10,2013-02-07 20:41:00,
2013-02-07 15:51:00,53.2,39.3,29.86,East,90,7.8,-999.0,59,0.00,,,0.00,open2300 v1.10,2013-02-07 20:51:00,
2013-02-07 16:01:00,53.4,39.5,29.86,NNE,22,5.6,-999.0,59,0.00,,,0.00,open2300 v1.10,2013-02-07 21:01:00,
2013-02-07 16:11:00,53.2,38.8,29.85,NNE,22,0.0,-999.0,58,0.00,,,0.00,open2300 v1.10,2013-02-07 21:11:00,
2013-02-07 16:21:00,53.2,39.3,29.84,NNE,22,3.1,-999.0,59,0.00,,,0.00,open2300 v1.10,2013-02-07 21:21:00,
2013-02-07 16:31:00,52.9,39.4,29.84,NNE,22,0.0,-999.0,60,0.00,,,0.00,open2300 v1.10,2013-02-07 21:31:00,
2013-02-07 16:41:00,51.4,38.4,29.84,NNE,22,0.0,-999.0,61,0.00,,,0.00,open2300 v1.10,2013-02-07 21:41:00,
2013-02-07 16:51:00,50.5,38.3,29.84,NNE,22,0.0,-999.0,63,0.00,,,0.00,open2300 v1.10,2013-02-07 21:51:00,
2013-02-07 17:01:00,50.0,38.7,29.83,NNE,22,0.0,-999.0,65,0.00,,,0.00,open2300 v1.10,2013-02-07 22:01:00,
2013-02-07 17:11:00,49.5,38.5,29.82,NNE,22,0.0,-999.0,66,0.00,,,0.00,open2300 v1.10,2013-02-07 22:11:00,
2013-02-07 17:21:00,48.9,38.4,29.82,NNE,22,0.0,-999.0,67,0.00,,,0.00,open2300 v1.10,2013-02-07 22:21:00,
2013-02-07 17:31:00,48.6,38.4,29.82,NNE,22,0.0,-999.0,68,0.00,,,0.00,open2300 v1.10,2013-02-07 22:31:00,
2013-02-07 17:41:00,48.0,37.9,29.82,NNE,22,0.0,-999.0,68,0.00,,,0.00,open2300 v1.10,2013-02-07 22:41:00,
2013-02-07 17:51:00,48.0,37.9,29.82,NNE,22,0.0,-999.0,68,0.00,,,0.00,open2300 v1.10,2013-02-07 22:51:00,
2013-02-07 18:01:00,48.0,37.9,29.82,NNE,22,0.0,-999.0,68,0.00,,,0.00,open2300 v1.10,2013-02-07 23:01:00,
2013-02-07 18:11:00,48.0,37.9,29.82,NNE,22,0.0,-999.0,68,0.00,,,0.00,open2300 v1.10,2013-02-07 23:11:00,
2013-02-07 18:21:00,48.0,37.9,29.82,NNE,22,0.0,-999.0,68,0.00,,,0.00,open2300 v1.10,2013-02-07 23:21:00,
2013-02-07 18:31:00,47.8,37.7,29.82,NNE,22,0.0,-999.0,68,0.00,,,0.00,open2300 v1.10,2013-02-07 23:31:00,
2013-02-07 18:41:00,47.5,37.8,29.83,NNE,22,0.0,-999.0,69,0.00,,,0.00,open2300 v1.10,2013-02-07 23:41:00,
2013-02-07 18:51:00,46.9,38.0,29.84,NNE,22,0.0,-999.0,71,0.00,,,0.00,open2300 v1.10,2013-02-07 23:51:00,
2013-02-07 19:01:00,45.7,37.9,29.84,North,0,0.0,-999.0,74,0.00,,,0.00,open2300 v1.10,2013-02-08 00:01:00,
2013-02-07 19:11:00,44.4,37.6,29.84,North,0,0.0,-999.0,77,0.02,,,0.02,open2300 v1.10,2013-02-08 00:11:00,
2013-02-07 19:21:00,43.7,37.6,29.84,North,0,0.0,-999.0,79,0.04,,,0.04,open2300 v1.10,2013-02-08 00:21:00,
2013-02-07 19:31:00,43.3,37.9,29.84,North,0,0.0,-999.0,81,0.04,,,0.04,open2300 v1.10,2013-02-08 00:31:00,
2013-02-07 19:41:00,43.0,37.8,29.84,North,0,0.0,-999.0,82,0.04,,,0.04,open2300 v1.10,2013-02-08 00:41:00,
2013-02-07 19:51:00,42.6,38.1,29.84,North,0,0.0,-999.0,84,0.06,,,0.06,open2300 v1.10,2013-02-08 00:51:00,
2013-02-07 20:01:00,42.4,37.9,29.84,North,0,2.5,-999.0,84,0.04,,,0.06,open2300 v1.10,2013-02-08 01:01:00,
2013-02-07 20:11:00,42.1,37.8,29.84,North,0,0.0,-999.0,85,0.04,,,0.06,open2300 v1.10,2013-02-08 01:11:00,
2013-02-07 20:21:00,41.7,37.5,29.84,NNE,22,0.0,-999.0,85,0.06,,,0.10,open2300 v1.10,2013-02-08 01:21:00,
2013-02-07 20:31:00,41.5,37.6,29.84,North,0,3.6,-999.0,86,0.06,,,0.10,open2300 v1.10,2013-02-08 01:31:00,
2013-02-07 20:41:00,41.4,37.4,29.84,North,0,0.0,-999.0,86,0.08,,,0.12,open2300 v1.10,2013-02-08 01:41:00,
2013-02-07 20:51:00,40.8,36.9,29.85,North,0,0.0,-999.0,86,0.06,,,0.12,open2300 v1.10,2013-02-08 01:51:00,
2013-02-07 21:01:00,40.6,37.0,29.84,North,0,0.0,-999.0,87,0.06,,,0.12,open2300 v1.10,2013-02-08 02:01:00,
2013-02-07 21:11:00,39.9,36.3,29.84,North,0,0.0,-999.0,87,0.06,,,0.12,open2300 v1.10,2013-02-08 02:11:00,
2013-02-07 21:21:00,39.6,36.0,29.84,NNE,22,0.0,-999.0,87,0.02,,,0.12,open2300 v1.10,2013-02-08 02:21:00,
2013-02-07 21:31:00,39.0,35.5,29.84,WNW,292,0.0,-999.0,87,0.02,,,0.12,open2300 v1.10,2013-02-08 02:31:00,
2013-02-07 21:41:00,38.5,34.9,29.84,North,0,0.0,-999.0,87,0.00,,,0.12,open2300 v1.10,2013-02-08 02:41:00,
2013-02-07 21:51:00,38.1,34.8,29.84,North,0,1.1,-999.0,88,0.00,,,0.12,open2300 v1.10,2013-02-08 02:51:00,
2013-02-07 22:01:00,37.9,34.7,29.84,NNE,22,0.0,-999.0,88,0.00,,,0.12,open2300 v1.10,2013-02-08 03:01:00,
2013-02-07 22:11:00,37.4,34.1,29.85,North,0,0.0,-999.0,88,0.00,,,0.12,open2300 v1.10,2013-02-08 03:11:00,
2013-02-07 22:21:00,37.0,33.8,29.85,North,0,0.0,-999.0,88,0.00,,,0.12,open2300 v1.10,2013-02-08 03:21:00,
2013-02-07 22:31:00,36.5,33.2,29.86,North,0,0.0,-999.0,88,0.00,,,0.12,open2300 v1.10,2013-02-08 03:31:00,
2013-02-07 22:41:00,36.0,32.7,29.86,North,0,1.3,-999.0,88,0.00,,,0.12,open2300 v1.10,2013-02-08 03:41:00,
2013-02-07 22:51:00,35.4,32.1,29.86,North,0,0.0,-999.0,88,0.00,,,0.12,open2300 v1.10,2013-02-08 03:51:00,
2013-02-07 23:01:00,35.2,32.0,29.86,North,0,0.0,-999.0,88,0.00,,,0.12,open2300 v1.10,2013-02-08 04:01:00,
2013-02-07 23:11:00,34.9,31.6,29.87,North,0,4.7,-999.0,88,0.00,,,0.12,open2300 v1.10,2013-02-08 04:11:00,
2013-02-07 23:21:00,34.5,31.5,29.87,North,0,0.0,-999.0,89,0.00,,,0.12,open2300 v1.10,2013-02-08 04:21:00,
2013-02-07 23:31:00,34.3,31.4,29.87,NNE,22,0.0,-999.0,89,0.00,,,0.12,open2300 v1.10,2013-02-08 04:31:00,
2013-02-07 23:41:00,34.3,31.4,29.86,North,0,6.3,-999.0,89,0.00,,,0.12,open2300 v1.10,2013-02-08 04:41:00,
2013-02-07 23:51:00,34.2,31.2,29.87,North,0,5.4,-999.0,89,0.00,,,0.12,open2300 v1.10,2013-02-08 04:51:00,